Time;durP1;ratioP1;P1;durP2;ratioP2;P2;SDS_P1;SDS_P2;PMS_P1;PMS_P2;Temp;Humidity;BMP_temperature;BMP_pressure;BME280_temperature;BME280_humidity;BME280_pressure;Samples;Min_cycle;Max_cycle;Signal;HPM_P1;HPM_P2
2022/01/18 00:01:59;;;;;;;68.43;8.38;;;7.10;99.90;;;;;;5078317;28;20145;-71
2022/01/18 00:04:27;;;;;;;61.15;7.63;;;7.10;99.90;;;;;;5077860;28;20041;-71
2022/01/18 00:06:53;;;;;;;49.33;7.95;;;7.20;99.90;;;;;;5077989;28;20084;-70
2022/01/18 00:09:22;;;;;;;64.53;7.75;;;7.30;99.90;;;;;;5077722;28;20419;-72
2022/01/18 00:11:58;;;;;;;59.47;8.55;;;7.20;99.90;;;;;;5077427;28;20036;-72
2022/01/18 00:14:42;;;;;;;55.80;8.45;;;7.20;99.90;;;;;;5092349;28;20044;-70
2022/01/18 00:17:19;;;;;;;68.05;8.35;;;7.10;99.90;;;;;;5076791;28;20059;-70
2022/01/18 00:19:54;;;;;;;67.18;8.85;;;7.10;99.90;;;;;;5077696;28;20417;-70
2022/01/18 00:22:21;;;;;;;53.25;7.35;;;7.00;99.90;;;;;;5077341;28;20116;-70
2022/01/18 00:24:47;;;;;;;58.30;6.97;;;6.90;99.90;;;;;;5092481;28;20048;-71
2022/01/18 00:27:15;;;;;;;57.65;8.05;;;6.80;99.90;;;;;;5097591;28;20040;-70
2022/01/18 00:29:54;;;;;;;57.33;8.35;;;6.80;99.90;;;;;;5097805;28;20052;-70
2022/01/18 00:32:37;;;;;;;47.47;7.13;;;6.70;99.90;;;;;;5097421;28;20046;-71
2022/01/18 00:35:03;;;;;;;53.20;7.40;;;6.60;99.90;;;;;;5097003;28;20481;-71
2022/01/18 00:37:37;;;;;;;57.45;8.20;;;6.50;99.90;;;;;;5097275;28;20046;-70
2022/01/18 00:40:05;;;;;;;66.93;7.82;;;6.50;99.90;;;;;;5096981;28;20047;-69
2022/01/18 00:42:30;;;;;;;59.05;7.80;;;6.50;99.90;;;;;;5097486;28;20471;-71
2022/01/18 00:44:56;;;;;;;59.10;7.03;;;6.50;99.90;;;;;;5097189;28;20056;-70
2022/01/18 00:47:22;;;;;;;63.83;8.18;;;6.50;99.90;;;;;;5097014;28;20051;-70
2022/01/18 00:49:56;;;;;;;55.53;7.53;;;6.60;99.90;;;;;;5079162;28;20059;-69
2022/01/18 00:52:22;;;;;;;55.92;7.68;;;6.40;99.90;;;;;;5096860;28;20444;-71
2022/01/18 00:54:48;;;;;;;62.53;9.52;;;6.40;99.90;;;;;;5081295;28;20040;-71
2022/01/18 00:57:14;;;;;;;61.45;7.68;;;6.40;99.90;;;;;;5059232;28;20053;-71
2022/01/18 00:59:41;;;;;;;67.70;8.55;;;6.30;99.90;;;;;;5076961;28;20140;-70
2022/01/18 01:02:08;;;;;;;71.40;8.60;;;6.30;99.90;;;;;;5076654;28;20049;-69
2022/01/18 01:04:39;;;;;;;58.90;8.15;;;6.40;99.90;;;;;;5077051;28;20052;-69
2022/01/18 01:07:04;;;;;;;73.32;8.40;;;6.40;99.90;;;;;;5076632;28;20049;-69
2022/01/18 01:09:30;;;;;;;59.45;7.82;;;6.40;99.90;;;;;;5076488;28;20043;-70
2022/01/18 01:11:55;;;;;;;58.33;8.00;;;6.40;99.90;;;;;;5059212;28;20130;-70
2022/01/18 01:14:24;;;;;;;66.40;7.82;;;6.50;99.90;;;;;;5076368;28;20045;-69
2022/01/18 01:19:31;;;;;;;78.25;8.75;;;6.50;99.90;;;;;;5041141;28;20049;-68
2022/01/18 01:35:41;;;;;;;69.45;8.25;;;6.50;99.90;;;;;;5096125;28;20083;-70
2022/01/18 01:44:00;;;;;;;51.05;7.65;;;6.60;99.90;;;;;;5096015;28;20044;-68
2022/01/18 01:46:21;;;;;;;59.65;8.15;;;6.50;99.90;;;;;;5095466;28;20051;-69
2022/01/18 01:48:52;;;;;;;64.70;8.65;;;6.50;99.90;;;;;;5078676;28;20471;-70
2022/01/18 01:51:18;;;;;;;42.10;7.63;;;6.50;99.90;;;;;;5096040;28;20044;-69
2022/01/18 01:53:43;;;;;;;64.05;8.02;;;6.50;99.90;;;;;;5087066;28;20106;-70
2022/01/18 01:56:09;;;;;;;65.30;7.65;;;6.50;99.90;;;;;;5075798;28;20056;-69
2022/01/18 01:58:34;;;;;;;56.58;8.48;;;6.50;99.90;;;;;;5075368;28;20445;-71
2022/01/18 02:01:06;;;;;;;74.85;9.15;;;6.50;99.90;;;;;;5075214;28;20445;-69
2022/01/18 02:03:32;;;;;;;71.35;8.77;;;6.50;99.90;;;;;;5075353;28;20044;-69
2022/01/18 02:05:58;;;;;;;70.78;8.82;;;6.50;99.90;;;;;;5075688;28;20052;-68
2022/01/18 02:08:24;;;;;;;64.53;7.90;;;6.60;99.90;;;;;;5092774;28;20524;-69
2022/01/18 02:10:49;;;;;;;61.17;8.32;;;6.50;99.90;;;;;;5077781;28;20044;-70
2022/01/18 02:13:15;;;;;;;73.72;8.50;;;6.50;99.90;;;;;;5095396;28;20050;-70
2022/01/18 02:16:10;;;;;;;58.20;7.95;;;6.40;99.90;;;;;;5078184;28;20119;-70
2022/01/18 02:21:46;;;;;;;60.80;8.15;;;6.40;99.90;;;;;;5050335;28;20052;-71
2022/01/18 02:24:13;;;;;;;51.78;7.55;;;6.40;99.90;;;;;;5082873;28;20044;-69
2022/01/18 02:26:38;;;;;;;60.85;8.38;;;6.40;99.90;;;;;;5075424;28;20059;-71
2022/01/18 02:29:07;;;;;;;46.97;7.35;;;6.40;99.90;;;;;;5075102;28;20044;-70
2022/01/18 02:31:33;;;;;;;62.15;8.40;;;6.50;99.90;;;;;;5057164;28;20508;-70
2022/01/18 02:34:08;;;;;;;51.83;7.72;;;6.50;99.90;;;;;;5075240;28;20130;-70
2022/01/18 02:36:34;;;;;;;45.83;7.65;;;6.40;99.90;;;;;;5075421;28;20123;-70
2022/01/18 02:39:01;;;;;;;53.25;7.15;;;6.40;99.90;;;;;;5057597;28;20127;-70
2022/01/18 02:41:31;;;;;;;48.20;6.63;;;6.40;99.90;;;;;;5076089;28;20170;-71
2022/01/18 02:44:04;;;;;;;55.70;7.28;;;6.40;99.90;;;;;;5057168;28;20040;-70
2022/01/18 02:46:30;;;;;;;48.40;6.72;;;6.40;99.90;;;;;;5075325;28;20330;-71
2022/01/18 02:48:57;;;;;;;54.78;7.65;;;6.40;99.90;;;;;;5075031;28;20060;-71
2022/01/18 02:51:23;;;;;;;43.22;6.25;;;6.40;99.90;;;;;;5073087;28;20074;-69
2022/01/18 02:53:57;;;;;;;51.88;7.00;;;6.40;99.90;;;;;;5095112;28;20458;-69
2022/01/18 02:56:23;;;;;;;44.70;7.00;;;6.40;99.90;;;;;;5095161;28;20482;-72
2022/01/18 02:58:49;;;;;;;44.13;6.40;;;6.50;99.90;;;;;;5077317;28;20106;-71
2022/01/18 03:03:59;;;;;;;47.70;5.80;;;6.50;99.90;;;;;;5076559;28;20063;-72
2022/01/18 03:06:24;;;;;;;36.55;5.88;;;6.50;99.90;;;;;;5075116;28;20051;-70
2022/01/18 03:08:50;;;;;;;43.45;6.43;;;6.50;99.90;;;;;;5074336;28;20449;-70
2022/01/18 03:11:15;;;;;;;49.38;5.88;;;6.50;99.90;;;;;;5074871;28;20380;-69
2022/01/18 03:13:41;;;;;;;38.78;5.20;;;6.50;99.90;;;;;;5075391;28;20127;-69
2022/01/18 03:16:06;;;;;;;43.70;6.43;;;6.50;99.90;;;;;;5078808;28;20055;-70
2022/01/18 03:18:32;;;;;;;39.22;5.65;;;6.50;99.90;;;;;;5079026;28;20095;-69
2022/01/18 03:20:58;;;;;;;45.30;7.38;;;6.50;99.90;;;;;;5060870;28;20074;-71
2022/01/18 03:23:24;;;;;;;33.38;5.75;;;6.50;99.90;;;;;;5078852;28;20056;-71
2022/01/18 03:25:58;;;;;;;46.03;6.47;;;6.90;99.90;;;;;;5078699;28;20036;-71
2022/01/18 03:28:26;;;;;;;39.83;5.53;;;6.50;99.90;;;;;;5078415;28;20110;-70
2022/01/18 03:30:58;;;;;;;35.53;5.38;;;6.50;99.90;;;;;;5078478;28;20420;-71
2022/01/18 03:33:25;;;;;;;47.92;5.57;;;6.50;99.90;;;;;;5060491;28;20049;-71
2022/01/18 03:35:53;;;;;;;35.78;5.88;;;6.50;99.90;;;;;;5092520;28;20076;-70
2022/01/18 03:38:21;;;;;;;37.50;5.47;;;6.50;99.90;;;;;;5080635;28;20044;-70
2022/01/18 03:40:47;;;;;;;35.67;5.57;;;6.50;99.90;;;;;;5098878;28;20062;-69
2022/01/18 03:43:13;;;;;;;37.33;5.32;;;6.50;99.90;;;;;;5098855;28;20413;-70
2022/01/18 03:45:44;;;;;;;30.63;5.45;;;6.50;99.90;;;;;;5080983;28;20048;-70
2022/01/18 03:48:28;;;;;;;33.15;6.07;;;6.50;99.90;;;;;;5098513;28;20444;-70
2022/01/18 03:50:55;;;;;;;32.65;5.45;;;6.60;99.90;;;;;;5098252;28;20059;-70
2022/01/18 03:53:22;;;;;;;36.70;6.10;;;6.60;99.90;;;;;;5076790;28;20044;-70
2022/01/18 03:55:48;;;;;;;31.45;5.20;;;6.60;99.90;;;;;;5078292;28;20361;-71
2022/01/18 03:58:13;;;;;;;36.45;5.20;;;6.60;99.90;;;;;;5059853;28;20041;-70
2022/01/18 04:00:39;;;;;;;33.70;5.75;;;6.60;99.90;;;;;;5058000;28;20418;-69
2022/01/18 04:03:05;;;;;;;27.08;5.20;;;6.60;99.90;;;;;;5058240;28;20098;-70
2022/01/18 04:05:31;;;;;;;31.05;6.72;;;6.60;99.90;;;;;;5057765;28;20118;-72
2022/01/18 04:07:56;;;;;;;29.90;4.97;;;6.60;99.90;;;;;;5056415;28;20045;-69
2022/01/18 04:10:22;;;;;;;24.58;4.53;;;6.60;99.90;;;;;;5025780;28;20049;-71
2022/01/18 04:12:48;;;;;;;29.45;4.75;;;6.60;99.90;;;;;;5086203;28;20085;-72
2022/01/18 04:15:17;;;;;;;27.83;4.78;;;6.60;99.90;;;;;;5085802;28;20043;-75
2022/01/18 04:17:53;;;;;;;22.65;4.18;;;6.60;99.90;;;;;;5084406;28;20123;-71
2022/01/18 04:26:02;;;;;;;27.60;3.90;;;6.60;99.90;;;;;;5077338;28;20105;-71
2022/01/18 04:28:43;;;;;;;27.02;4.63;;;6.60;99.90;;;;;;5076662;28;20052;-69
2022/01/18 04:31:10;;;;;;;29.42;4.85;;;6.60;99.90;;;;;;5077305;28;20053;-72
2022/01/18 04:33:37;;;;;;;25.35;4.00;;;6.60;99.90;;;;;;5077023;28;20075;-70
2022/01/18 04:36:04;;;;;;;23.25;4.28;;;6.60;99.90;;;;;;5076116;28;20084;-71
2022/01/18 04:38:30;;;;;;;25.10;4.10;;;6.60;99.90;;;;;;5077163;28;20052;-70
2022/01/18 04:41:04;;;;;;;28.58;4.22;;;6.60;99.90;;;;;;5077264;28;20044;-68
2022/01/18 04:44:04;;;;;;;;;;;6.60;99.90;;;;;;5077776;28;20045;-70
2022/01/18 04:49:15;;;;;;;26.65;4.15;;;6.60;99.90;;;;;;5075737;28;20063;-71
2022/01/18 04:51:41;;;;;;;24.52;3.45;;;6.60;99.90;;;;;;5078201;28;20052;-73
2022/01/18 04:54:09;;;;;;;29.13;3.90;;;6.60;99.90;;;;;;5079122;28;20091;-70
2022/01/18 04:59:03;;;;;;;23.02;3.53;;;6.60;99.90;;;;;;5078957;28;20049;-72
2022/01/18 05:01:28;;;;;;;15.40;3.90;;;6.50;99.90;;;;;;5076703;28;20047;-71
2022/01/18 05:03:54;;;;;;;29.88;3.95;;;6.50;99.90;;;;;;5059189;28;20044;-70
2022/01/18 05:06:20;;;;;;;25.73;3.83;;;6.50;99.90;;;;;;5079930;28;20028;-71
2022/01/18 05:08:46;;;;;;;17.65;3.55;;;6.60;99.90;;;;;;5072474;28;20044;-71
2022/01/18 05:11:18;;;;;;;24.77;3.72;;;6.50;99.90;;;;;;5096656;28;20039;-72
2022/01/18 05:19:21;;;;;;;19.70;4.07;;;6.50;99.90;;;;;;5059090;28;20052;-71
2022/01/18 05:24:19;;;;;;;30.10;4.30;;;6.50;99.90;;;;;;5076602;28;20384;-73
2022/01/18 05:26:45;;;;;;;25.40;3.22;;;6.50;99.90;;;;;;5058434;28;20044;-71
2022/01/18 05:29:10;;;;;;;19.52;3.25;;;6.50;99.90;;;;;;5070753;28;20055;-72
2022/01/18 05:31:36;;;;;;;22.23;3.22;;;6.50;99.90;;;;;;5096142;28;20044;-71
2022/01/18 05:34:02;;;;;;;25.17;3.67;;;6.50;99.90;;;;;;5078664;28;20056;-71
2022/01/18 05:36:28;;;;;;;21.17;3.17;;;6.50;99.90;;;;;;5095681;28;20432;-74
2022/01/18 05:38:53;;;;;;;22.05;3.40;;;6.50;99.90;;;;;;5078473;28;20131;-70
2022/01/18 05:41:20;;;;;;;14.43;3.05;;;6.50;99.90;;;;;;5096093;28;20126;-70
2022/01/18 05:43:46;;;;;;;19.52;3.35;;;6.50;99.90;;;;;;5096092;28;20094;-70
2022/01/18 05:46:11;;;;;;;16.30;3.60;;;6.50;99.90;;;;;;5095904;28;20088;-71
2022/01/18 05:48:37;;;;;;;15.73;2.78;;;6.50;99.90;;;;;;5096010;28;20076;-70
2022/01/18 05:51:03;;;;;;;22.67;3.42;;;6.50;99.90;;;;;;5078377;28;20066;-69
2022/01/18 05:53:31;;;;;;;22.08;3.15;;;6.60;99.90;;;;;;5094527;28;20131;-68
2022/01/18 05:55:57;;;;;;;18.30;2.92;;;6.50;99.90;;;;;;5095819;28;20418;-71
2022/01/18 05:58:23;;;;;;;20.38;2.85;;;6.50;99.90;;;;;;5095704;28;20093;-73
2022/01/18 06:00:52;;;;;;;24.88;3.10;;;6.50;99.90;;;;;;5095637;28;20044;-70
2022/01/18 06:08:59;;;;;;;16.17;2.72;;;6.50;99.90;;;;;;5077475;28;20523;-71
2022/01/18 06:11:24;;;;;;;22.42;2.83;;;6.50;99.90;;;;;;5096000;28;20123;-72
2022/01/18 06:13:50;;;;;;;14.43;2.65;;;6.50;99.90;;;;;;5081323;28;20044;-71
2022/01/18 06:16:15;;;;;;;16.33;2.67;;;6.50;99.90;;;;;;5075577;28;20044;-71
2022/01/18 06:18:41;;;;;;;26.70;4.22;;;6.50;99.90;;;;;;5057763;28;20114;-71
2022/01/18 06:21:07;;;;;;;15.80;2.97;;;6.60;99.90;;;;;;5079627;28;20040;-72
2022/01/18 06:23:32;;;;;;;11.82;2.30;;;6.60;99.90;;;;;;5095528;28;20052;-70
2022/01/18 06:26:02;;;;;;;22.95;3.03;;;6.60;99.90;;;;;;5095689;28;20127;-71
2022/01/18 06:28:28;;;;;;;16.42;3.17;;;6.60;99.90;;;;;;5073352;28;20049;-73
2022/01/18 06:30:53;;;;;;;13.07;2.65;;;6.60;99.90;;;;;;5086549;28;20047;-72
2022/01/18 06:33:19;;;;;;;16.88;2.53;;;6.60;99.90;;;;;;5059009;28;20044;-71
2022/01/18 06:35:44;;;;;;;15.15;3.10;;;6.60;99.90;;;;;;5075550;28;20052;-71
2022/01/18 06:38:12;;;;;;;13.68;2.60;;;6.50;99.90;;;;;;5093742;28;20456;-71
2022/01/18 06:40:38;;;;;;;20.95;2.92;;;6.60;99.90;;;;;;5095071;28;20055;-69
2022/01/18 06:43:05;;;;;;;18.73;2.95;;;6.50;99.90;;;;;;5094942;28;20055;-71
2022/01/18 06:45:30;;;;;;;17.05;3.00;;;6.50;99.90;;;;;;5094342;28;20105;-71
2022/01/18 06:47:56;;;;;;;11.35;2.55;;;6.50;99.90;;;;;;5093438;28;20052;-71
2022/01/18 06:50:21;;;;;;;17.88;3.05;;;6.50;99.90;;;;;;5094742;28;20036;-71
2022/01/18 06:52:47;;;;;;;19.60;3.05;;;6.50;99.90;;;;;;5092171;28;20056;-71
2022/01/18 06:55:13;;;;;;;19.83;3.10;;;6.50;99.90;;;;;;5093991;28;20044;-71
2022/01/18 06:57:38;;;;;;;11.15;2.85;;;6.50;99.90;;;;;;5075810;28;20136;-73
2022/01/18 07:00:05;;;;;;;16.92;3.35;;;6.50;99.90;;;;;;5094467;28;20051;-71
2022/01/18 07:02:31;;;;;;;17.98;3.30;;;6.40;99.90;;;;;;5094341;28;20431;-70
2022/01/18 07:04:56;;;;;;;12.02;2.53;;;6.40;99.90;;;;;;5092608;28;20079;-72
2022/01/18 07:07:23;;;;;;;16.98;3.25;;;6.40;99.90;;;;;;5094675;28;20048;-70
2022/01/18 07:09:49;;;;;;;27.38;3.72;;;6.40;99.90;;;;;;5077040;28;20394;-72
2022/01/18 07:12:15;;;;;;;18.27;2.92;;;6.40;99.90;;;;;;5093869;28;20135;-69
2022/01/18 07:14:41;;;;;;;18.23;3.28;;;6.40;99.90;;;;;;5090790;28;20051;-72
2022/01/18 07:17:08;;;;;;;20.67;2.95;;;6.40;99.90;;;;;;5076815;28;20467;-69
2022/01/18 07:19:34;;;;;;;21.33;3.00;;;6.30;99.90;;;;;;5094715;28;20043;-71
2022/01/18 07:22:00;;;;;;;21.15;3.40;;;6.30;99.90;;;;;;5076481;28;20533;-72
2022/01/18 07:27:07;;;;;;;15.57;3.35;;;6.30;99.90;;;;;;5075640;28;20117;-70
2022/01/18 07:29:33;;;;;;;13.57;3.20;;;6.30;99.90;;;;;;5076047;28;20036;-71
2022/01/18 07:31:59;;;;;;;16.25;3.15;;;6.30;99.90;;;;;;5074079;28;20048;-71
2022/01/18 07:34:26;;;;;;;17.38;3.33;;;6.30;99.90;;;;;;5066833;28;20048;-71
2022/01/18 07:36:51;;;;;;;14.93;3.05;;;6.30;99.90;;;;;;5071840;28;20460;-70
2022/01/18 07:39:18;;;;;;;15.57;3.25;;;6.30;99.90;;;;;;5076892;28;20059;-71
2022/01/18 07:41:43;;;;;;;11.55;2.85;;;6.30;99.90;;;;;;5076547;28;20048;-70
2022/01/18 07:44:09;;;;;;;17.95;3.20;;;6.30;99.90;;;;;;5076195;28;20044;-69
2022/01/18 07:46:35;;;;;;;22.13;3.30;;;6.30;99.90;;;;;;5093202;28;20487;-71
2022/01/18 07:49:00;;;;;;;14.57;3.20;;;6.30;99.90;;;;;;5093801;28;20131;-70
2022/01/18 07:51:26;;;;;;;19.67;3.17;;;6.40;99.90;;;;;;5076041;28;20528;-69
2022/01/18 07:53:51;;;;;;;17.17;3.15;;;6.30;99.90;;;;;;5076557;28;20187;-70
2022/01/18 07:56:17;;;;;;;21.63;3.95;;;6.40;99.90;;;;;;5093680;28;20058;-69
2022/01/18 07:58:42;;;;;;;20.05;4.25;;;6.40;99.90;;;;;;5067783;28;20078;-69
2022/01/18 08:01:08;;;;;;;19.23;4.10;;;6.40;99.90;;;;;;5078969;28;20431;-70
2022/01/18 08:03:33;;;;;;;20.15;3.50;;;6.40;99.90;;;;;;5080400;28;20056;-70
2022/01/18 08:06:00;;;;;;;17.75;3.58;;;6.40;99.90;;;;;;5097540;28;20113;-72
2022/01/18 08:08:26;;;;;;;22.95;4.22;;;6.40;99.90;;;;;;5079979;28;20067;-70
2022/01/18 08:10:52;;;;;;;19.60;4.10;;;6.40;99.90;;;;;;5076206;28;20040;-71
2022/01/18 08:13:18;;;;;;;16.55;4.05;;;6.40;99.90;;;;;;5097150;28;20456;-68
2022/01/18 08:15:56;;;;;;;19.63;4.35;;;6.40;99.90;;;;;;5096318;28;20098;-70
2022/01/18 08:18:21;;;;;;;19.42;4.35;;;6.50;99.90;;;;;;5097509;28;20059;-71
2022/01/18 08:20:47;;;;;;;24.85;4.15;;;6.40;99.90;;;;;;5078756;28;20044;-69
2022/01/18 08:23:12;;;;;;;19.73;4.00;;;6.50;99.90;;;;;;5079852;28;20048;-72
2022/01/18 08:25:39;;;;;;;18.85;3.83;;;6.50;99.90;;;;;;5079441;28;20129;-70
2022/01/18 08:28:05;;;;;;;18.25;4.05;;;6.50;99.90;;;;;;5094069;28;20070;-71
2022/01/18 08:30:30;;;;;;;19.13;3.70;;;6.50;99.90;;;;;;5079812;28;20047;-72
2022/01/18 08:32:56;;;;;;;14.75;3.40;;;6.40;99.90;;;;;;5075963;28;20456;-70
2022/01/18 08:35:25;;;;;;;25.08;4.65;;;6.50;99.90;;;;;;5079724;28;20040;-70
2022/01/18 08:37:51;;;;;;;16.35;3.90;;;6.50;99.90;;;;;;5097061;28;20123;-70
2022/01/18 08:40:17;;;;;;;19.85;3.80;;;6.50;99.90;;;;;;5097382;28;20140;-72
2022/01/18 08:42:43;;;;;;;18.83;4.68;;;6.60;99.90;;;;;;5096995;28;20047;-73
2022/01/18 08:45:09;;;;;;;19.85;4.72;;;6.60;99.90;;;;;;5096471;28;20040;-71
2022/01/18 08:47:34;;;;;;;15.32;3.97;;;6.60;99.90;;;;;;5096386;28;20044;-69
2022/01/18 08:50:01;;;;;;;17.77;3.95;;;6.60;99.90;;;;;;5096677;28;20055;-71
2022/01/18 08:52:26;;;;;;;19.95;4.15;;;6.70;99.90;;;;;;5096550;28;20117;-70
2022/01/18 08:54:52;;;;;;;15.32;4.18;;;6.70;99.90;;;;;;5079255;28;20496;-73
2022/01/18 08:57:17;;;;;;;17.67;4.20;;;6.70;99.90;;;;;;5092359;28;20536;-69
2022/01/18 08:59:44;;;;;;;15.48;4.32;;;6.70;99.90;;;;;;5096378;28;20047;-70
2022/01/18 09:02:11;;;;;;;21.98;4.63;;;6.80;99.90;;;;;;5078147;28;20066;-69
2022/01/18 09:04:37;;;;;;;15.35;4.30;;;6.90;99.90;;;;;;5088594;28;20097;-71
2022/01/18 09:07:08;;;;;;;20.08;4.10;;;6.90;99.90;;;;;;5061481;28;20095;-71
2022/01/18 09:09:35;;;;;;;16.77;4.57;;;6.90;99.90;;;;;;5078979;28;20043;-70
2022/01/18 09:12:01;;;;;;;13.95;4.18;;;6.90;99.90;;;;;;5078483;28;20059;-69
2022/01/18 09:14:27;;;;;;;18.38;4.70;;;6.90;99.90;;;;;;5078330;28;20048;-73
2022/01/18 09:16:52;;;;;;;15.52;4.57;;;7.00;99.90;;;;;;5095901;28;20035;-70
2022/01/18 09:19:18;;;;;;;15.45;3.65;;;7.00;99.90;;;;;;5075907;28;20041;-71
2022/01/18 09:21:47;;;;;;;17.98;3.67;;;7.10;99.90;;;;;;5095582;28;20101;-70
2022/01/18 09:24:13;;;;;;;15.27;3.88;;;7.10;99.90;;;;;;5077954;28;20113;-71
2022/01/18 09:26:38;;;;;;;10.55;3.72;;;7.10;99.90;;;;;;5093914;28;20075;-69
2022/01/18 09:29:06;;;;;;;15.02;3.85;;;7.20;99.90;;;;;;5078306;28;20056;-69
2022/01/18 09:31:34;;;;;;;10.13;3.85;;;7.30;99.90;;;;;;5061012;28;20449;-71
2022/01/18 09:33:59;;;;;;;14.80;3.58;;;7.20;99.90;;;;;;5058468;28;20053;-70
2022/01/18 09:36:25;;;;;;;17.92;3.97;;;7.30;99.90;;;;;;5076144;28;20451;-70
2022/01/18 09:38:50;;;;;;;15.23;3.70;;;7.40;99.90;;;;;;5074783;28;20040;-71
2022/01/18 09:41:19;;;;;;;16.58;3.22;;;7.40;99.90;;;;;;5078077;28;20136;-69
2022/01/18 09:43:45;;;;;;;11.60;2.90;;;7.40;99.90;;;;;;5095976;28;20119;-71
2022/01/18 09:46:10;;;;;;;15.43;3.47;;;7.50;99.90;;;;;;5095986;28;20083;-69
2022/01/18 09:48:37;;;;;;;15.38;3.22;;;7.50;99.90;;;;;;5096033;28;20052;-72
2022/01/18 09:51:03;;;;;;;14.80;3.30;;;7.50;99.90;;;;;;5096308;28;20356;-69
2022/01/18 09:53:29;;;;;;;11.60;2.97;;;7.50;99.90;;;;;;5077727;28;20059;-70
2022/01/18 09:55:54;;;;;;;12.70;3.45;;;7.60;99.90;;;;;;5077560;28;20177;-71
2022/01/18 09:58:21;;;;;;;16.65;4.25;;;7.60;99.90;;;;;;5078327;28;20504;-71
2022/01/18 10:00:48;;;;;;;14.40;3.22;;;7.60;99.90;;;;;;5095666;28;20126;-71
2022/01/18 10:03:27;;;;;;;12.98;3.08;;;7.60;99.90;;;;;;5061198;28;20054;-70
2022/01/18 10:05:53;;;;;;;14.32;3.20;;;7.70;99.90;;;;;;5095807;28;20127;-71
2022/01/18 10:08:19;;;;;;;13.50;3.50;;;7.80;99.90;;;;;;5065986;28;20178;-70
2022/01/18 10:10:51;;;;;;;15.63;4.03;;;7.80;99.90;;;;;;5058224;28;20137;-71
2022/01/18 10:13:27;;;;;;;15.80;3.30;;;7.90;99.90;;;;;;5057407;28;20063;-72
2022/01/18 10:16:15;;;;;;;14.55;3.38;;;7.90;99.90;;;;;;5057832;28;20467;-72
2022/01/18 10:18:49;;;;;;;16.23;4.57;;;8.00;99.90;;;;;;5057708;28;20037;-71
2022/01/18 10:21:28;;;;;;;13.15;3.67;;;8.00;99.90;;;;;;5075688;28;20044;-70
2022/01/18 10:24:11;;;;;;;16.33;3.90;;;8.00;99.90;;;;;;5057637;28;20411;-72
2022/01/18 10:26:43;;;;;;;16.77;4.40;;;8.00;99.90;;;;;;5078491;28;20051;-71
2022/01/18 10:29:11;;;;;;;19.25;5.00;;;7.90;99.90;;;;;;5095542;28;20083;-69
2022/01/18 10:31:43;;;;;;;17.48;4.85;;;7.80;99.90;;;;;;5095178;28;20087;-70
2022/01/18 10:34:27;;;;;;;15.65;3.90;;;7.70;99.90;;;;;;5077012;28;20051;-69
2022/01/18 10:36:59;;;;;;;18.30;4.55;;;7.70;99.90;;;;;;5095263;28;20138;-69
2022/01/18 10:39:38;;;;;;;18.95;4.82;;;7.70;99.90;;;;;;5077267;28;20074;-71
2022/01/18 10:42:16;;;;;;;22.55;5.35;;;7.70;99.90;;;;;;5077175;28;20048;-71
2022/01/18 10:44:42;;;;;;;13.57;4.65;;;7.80;99.90;;;;;;5095368;28;20402;-72
2022/01/18 10:47:09;;;;;;;18.92;5.05;;;7.80;99.90;;;;;;5095156;28;20044;-70
2022/01/18 10:49:39;;;;;;;21.15;5.25;;;7.80;99.90;;;;;;5095192;28;20356;-71
2022/01/18 10:52:11;;;;;;;16.55;4.80;;;7.80;99.90;;;;;;5095142;28;20056;-69
2022/01/18 10:54:39;;;;;;;15.98;4.32;;;7.90;99.90;;;;;;5095001;28;20055;-69
2022/01/18 10:57:06;;;;;;;17.63;4.63;;;7.90;99.90;;;;;;5094665;28;20088;-71
2022/01/18 10:59:33;;;;;;;16.65;4.00;;;7.90;99.90;;;;;;5094958;28;20048;-69
2022/01/18 11:02:17;;;;;;;15.82;4.05;;;8.00;99.90;;;;;;5076780;28;20554;-70
2022/01/18 11:04:45;;;;;;;12.02;3.95;;;8.00;99.90;;;;;;5094676;28;20063;-72
2022/01/18 11:07:12;;;;;;;17.23;4.38;;;8.00;99.90;;;;;;5077318;28;20365;-71
2022/01/18 11:09:38;;;;;;;15.63;4.20;;;8.10;99.90;;;;;;5060681;28;20048;-70
2022/01/18 11:12:05;;;;;;;14.13;3.90;;;8.10;99.90;;;;;;5077009;28;20495;-71
2022/01/18 11:14:32;;;;;;;15.38;4.85;;;8.10;99.90;;;;;;5076929;28;20051;-71
2022/01/18 11:16:59;;;;;;;13.25;4.97;;;8.10;99.90;;;;;;5094633;28;20048;-70
2022/01/18 11:21:54;;;;;;;15.52;3.47;;;8.10;99.90;;;;;;5076968;28;20125;-72
2022/01/18 11:24:20;;;;;;;16.13;3.78;;;8.20;99.90;;;;;;5076996;28;20048;-71
2022/01/18 11:26:47;;;;;;;14.57;4.68;;;8.10;99.90;;;;;;5091864;28;20032;-71
2022/01/18 11:29:16;;;;;;;13.25;3.72;;;8.20;99.90;;;;;;5083270;28;20065;-70
2022/01/18 11:31:48;;;;;;;20.17;3.95;;;8.20;99.90;;;;;;5057074;28;20063;-71
2022/01/18 11:34:23;;;;;;;12.52;3.50;;;8.30;99.90;;;;;;5074491;28;20048;-69
2022/01/18 11:36:50;;;;;;;15.07;4.05;;;8.30;99.90;;;;;;5060762;28;20048;-69
2022/01/18 11:39:17;;;;;;;14.52;4.32;;;8.40;99.90;;;;;;5060577;28;20071;-73
2022/01/18 11:41:43;;;;;;;17.88;4.38;;;8.40;99.90;;;;;;5078326;28;20059;-71
2022/01/18 11:44:18;;;;;;;19.60;4.53;;;8.50;99.90;;;;;;5060449;28;20052;-69
2022/01/18 11:46:52;;;;;;;14.27;4.65;;;8.50;99.90;;;;;;5060757;28;20083;-68
2022/01/18 11:49:27;;;;;;;14.27;3.40;;;8.60;99.90;;;;;;5077843;28;20411;-70
2022/01/18 11:51:59;;;;;;;21.38;3.95;;;8.60;99.90;;;;;;5060259;28;20057;-70
2022/01/18 11:54:34;;;;;;;20.25;4.55;;;8.50;99.90;;;;;;5059970;28;20524;-73
2022/01/18 11:57:01;;;;;;;15.48;4.50;;;8.50;99.90;;;;;;5069153;28;20464;-72
2022/01/18 11:59:35;;;;;;;16.27;4.38;;;8.60;99.90;;;;;;5098201;28;20101;-72
2022/01/18 12:02:03;;;;;;;14.52;3.35;;;8.50;99.90;;;;;;5098886;28;20056;-70
2022/01/18 12:04:41;;;;;;;14.32;3.15;;;8.50;99.90;;;;;;5098069;28;20093;-72
2022/01/18 12:07:08;;;;;;;16.58;3.83;;;8.50;99.90;;;;;;5080172;28;20047;-70
2022/01/18 12:09:42;;;;;;;22.48;4.55;;;8.50;99.90;;;;;;5079749;28;20044;-72
2022/01/18 12:12:35;;;;;;;14.05;4.10;;;8.50;99.90;;;;;;5097699;28;20047;-70
2022/01/18 12:15:02;;;;;;;22.03;4.87;;;8.40;99.90;;;;;;5097859;28;20036;-70
2022/01/18 12:17:45;;;;;;;12.60;3.67;;;8.40;99.90;;;;;;5080770;28;20317;-71
2022/01/18 12:20:33;;;;;;;18.65;3.45;;;8.50;99.90;;;;;;5079740;28;20125;-72
2022/01/18 12:23:21;;;;;;;14.43;3.63;;;8.40;99.90;;;;;;5079992;28;20352;-72
2022/01/18 12:26:03;;;;;;;17.48;3.45;;;8.40;99.90;;;;;;5078829;28;20048;-70
2022/01/18 12:28:49;;;;;;;15.88;3.25;;;8.40;99.90;;;;;;5077405;28;20087;-70
2022/01/18 12:34:30;;;;;;;12.60;3.30;;;8.30;99.90;;;;;;5059432;28;20048;-71
2022/01/18 12:36:57;;;;;;;;;;;8.30;99.90;;;;;;5077693;28;20063;-72
2022/01/18 12:39:23;;;;;;;17.75;3.17;;;8.30;99.90;;;;;;5077557;28;19936;-70
2022/01/18 12:41:54;;;;;;;12.32;2.80;;;8.30;99.90;;;;;;5077254;28;20444;-69
2022/01/18 12:44:21;;;;;;;16.40;3.17;;;8.30;99.90;;;;;;5059483;28;20117;-69
2022/01/18 12:46:54;;;;;;;13.50;2.65;;;8.30;99.90;;;;;;5076993;28;20044;-71
2022/01/18 12:49:21;;;;;;;13.90;3.08;;;8.30;99.90;;;;;;5076742;28;20044;-71
2022/01/18 12:51:54;;;;;;;15.05;3.50;;;8.30;99.90;;;;;;5076821;28;20368;-71
2022/01/18 12:54:20;;;;;;;14.73;3.05;;;8.40;99.90;;;;;;5077149;28;20092;-70
2022/01/18 12:56:45;;;;;;;11.85;3.05;;;8.40;99.90;;;;;;5061674;28;20087;-72
2022/01/18 12:59:11;;;;;;;13.82;3.63;;;8.30;99.90;;;;;;5059231;28;20044;-72
2022/01/18 13:01:37;;;;;;;11.15;3.25;;;8.30;99.90;;;;;;5059310;28;20055;-70
2022/01/18 13:04:07;;;;;;;12.25;3.60;;;8.30;99.90;;;;;;5076921;28;20186;-69
2022/01/18 13:06:33;;;;;;;15.90;4.38;;;8.30;99.90;;;;;;5059405;28;20384;-70
2022/01/18 13:09:04;;;;;;;14.93;3.22;;;8.20;99.90;;;;;;5059162;28;20053;-73
2022/01/18 13:11:37;;;;;;;19.27;4.53;;;8.30;99.90;;;;;;5058625;28;20128;-72
2022/01/18 13:14:10;;;;;;;19.08;4.18;;;8.30;99.90;;;;;;5059399;28;20463;-70
2022/01/18 13:27:29;;;;;;;18.27;4.78;;;8.10;99.90;;;;;;5072495;28;20130;-71
2022/01/18 13:30:28;;;;;;;19.25;5.30;;;8.10;99.90;;;;;;5096538;28;20056;-72
2022/01/18 13:32:57;;;;;;;14.98;4.90;;;8.10;99.90;;;;;;5078728;28;20098;-70
2022/01/18 13:35:28;;;;;;;19.65;6.18;;;8.00;99.90;;;;;;5078808;28;20139;-70
2022/01/18 13:37:58;;;;;;;15.73;5.32;;;8.10;99.90;;;;;;5096158;28;20044;-70
2022/01/18 13:40:26;;;;;;;18.60;5.47;;;8.10;99.90;;;;;;5062036;28;20368;-68
2022/01/18 13:43:15;;;;;;;17.15;5.40;;;8.10;99.90;;;;;;5096435;28;20050;-70
2022/01/18 13:45:43;;;;;;;20.50;5.38;;;8.00;99.90;;;;;;5078544;28;20075;-70
2022/01/18 13:48:11;;;;;;;19.58;6.82;;;8.00;99.90;;;;;;5078593;28;20058;-69
2022/01/18 13:50:57;;;;;;;23.45;5.93;;;8.00;99.90;;;;;;5078328;28;20059;-72
2022/01/18 13:53:31;;;;;;;16.48;6.20;;;8.00;99.90;;;;;;5078373;28;20427;-71
2022/01/18 13:56:26;;;;;;;20.05;5.60;;;7.90;99.90;;;;;;5074167;28;20116;-72
2022/01/18 13:59:01;;;;;;;21.10;6.63;;;7.70;99.90;;;;;;5075582;28;20060;-70
2022/01/18 14:01:28;;;;;;;18.73;6.30;;;7.80;99.90;;;;;;5077868;28;20399;-69
2022/01/18 14:04:00;;;;;;;21.63;6.28;;;7.80;99.90;;;;;;5078255;28;20052;-71
2022/01/18 14:06:37;;;;;;;22.10;6.70;;;7.80;99.90;;;;;;5078177;28;20062;-72
2022/01/18 14:09:04;;;;;;;18.38;6.53;;;7.80;99.90;;;;;;5077983;28;20071;-70